Time;durP1;ratioP1;P1;durP2;ratioP2;P2;SDS_P1;SDS_P2;PMS_P1;PMS_P2;Temp;Humidity;BMP_temperature;BMP_pressure;BME280_temperature;BME280_humidity;BME280_pressure;Samples;Min_cycle;Max_cycle;Signal;HPM_P1;HPM_P2
2021/11/12 00:04:56;;;;;;;160.35;82.65;;;;;;;0.31;70.17;97888.25;1673063;83;26020;-81
2021/11/12 00:12:44;;;;;;;162.43;81.47;;;;;;;0.27;70.35;97886.84;1719887;83;25707;-81
2021/11/12 00:15:12;;;;;;;152.10;79.82;;;;;;;0.23;70.35;97893.41;1720062;83;25774;-81
2021/11/12 00:17:40;;;;;;;147.80;77.25;;;;;;;0.20;70.44;97883.05;1720052;83;25725;-81
2021/11/12 00:20:09;;;;;;;157.80;78.97;;;;;;;0.23;70.63;97898.72;1719949;83;27353;-81
2021/11/12 00:22:35;;;;;;;145.35;76.75;;;;;;;0.24;70.65;97895.58;1719874;83;26453;-81
2021/11/12 00:25:03;;;;;;;153.20;78.33;;;;;;;0.23;70.72;97892.09;1719703;82;25786;-82
2021/11/12 00:27:33;;;;;;;136.30;74.20;;;;;;;0.26;70.83;97885.16;1719855;82;25844;-82
2021/11/12 00:30:15;;;;;;;142.50;73.25;;;;;;;0.29;70.95;97886.70;1719955;83;25832;-81
2021/11/12 00:35:13;;;;;;;;;;;;;;;0.36;71.07;97888.67;1722540;83;25778;-82
2021/11/12 00:37:51;;;;;;;142.18;71.87;;;;;;;0.39;71.22;97879.59;1718211;83;25779;-81
2021/11/12 00:40:20;;;;;;;134.18;69.42;;;;;;;0.41;71.21;97884.77;1701474;83;25736;-82
2021/11/12 00:45:30;;;;;;;134.72;71.17;;;;;;;0.50;71.33;97881.30;1693503;83;28221;-82
2021/11/12 00:48:10;;;;;;;134.47;70.37;;;;;;;0.54;71.35;97894.17;1694248;84;25756;-82
2021/11/12 00:55:24;;;;;;;133.07;70.20;;;;;;;0.66;71.38;97881.61;1694486;84;25326;-82
2021/11/12 00:57:53;;;;;;;123.65;66.57;;;;;;;0.68;71.42;97883.16;1694214;83;28194;-81
2021/11/12 01:00:21;;;;;;;119.25;63.60;;;;;;;0.71;71.41;97892.67;1693182;83;26500;-81
2021/11/12 01:02:48;;;;;;;125.60;66.25;;;;;;;0.73;71.39;97888.03;1694317;84;25826;-82
2021/11/12 01:05:16;;;;;;;125.67;64.50;;;;;;;0.76;71.43;97886.92;1693353;84;26457;-82
2021/11/12 01:07:43;;;;;;;125.42;60.15;;;;;;;0.78;71.45;97887.63;1694249;84;25981;-81
2021/11/12 01:10:13;;;;;;;120.22;61.18;;;;;;;0.79;71.45;97887.50;1694463;83;28200;-81
2021/11/12 01:12:42;;;;;;;119.28;62.43;;;;;;;0.82;71.52;97888.55;1694196;84;25875;-81
2021/11/12 01:15:13;;;;;;;112.45;59.00;;;;;;;0.82;71.59;97884.57;1694255;84;25784;-82
2021/11/12 01:17:41;;;;;;;117.90;61.13;;;;;;;0.84;71.66;97889.27;1692388;84;26419;-81
2021/11/12 01:20:10;;;;;;;122.87;61.00;;;;;;;0.89;71.72;97894.98;1689453;84;25815;-81
2021/11/12 01:22:37;;;;;;;119.20;61.15;;;;;;;0.91;71.71;97891.70;1694373;84;27339;-81
2021/11/12 01:25:10;;;;;;;108.00;57.13;;;;;;;0.92;71.79;97888.55;1694061;83;25747;-81
2021/11/12 01:27:39;;;;;;;107.17;57.08;;;;;;;0.95;71.80;97890.94;1694502;83;25840;-81
2021/11/12 01:30:08;;;;;;;97.40;54.00;;;;;;;0.98;71.69;97891.48;1694143;83;25803;-81
2021/11/12 01:32:35;;;;;;;99.20;53.35;;;;;;;1.01;71.64;97882.39;1694462;83;25763;-81
2021/11/12 01:35:02;;;;;;;99.62;53.38;;;;;;;1.02;71.60;97884.91;1694488;83;27362;-81
2021/11/12 01:37:30;;;;;;;98.65;53.20;;;;;;;1.05;71.61;97881.14;1694415;84;26127;-81
2021/11/12 01:40:01;;;;;;;91.08;51.60;;;;;;;1.07;71.61;97879.19;1705106;83;25682;-81
2021/11/12 01:42:43;;;;;;;96.63;50.92;;;;;;;1.07;71.65;97874.72;1720035;81;25769;-81
2021/11/12 01:45:11;;;;;;;109.95;53.80;;;;;;;1.07;71.69;97874.72;1692195;83;25738;-80
2021/11/12 01:50:15;;;;;;;114.25;54.20;;;;;;;1.09;71.91;97880.70;1691698;84;25924;-81
2021/11/12 01:52:43;;;;;;;115.25;53.95;;;;;;;1.13;72.01;97879.10;1692027;84;25901;-79
2021/11/12 01:55:14;;;;;;;105.87;51.33;;;;;;;1.15;71.99;97883.80;1691888;84;25827;-81
2021/11/12 01:57:50;;;;;;;114.47;54.45;;;;;;;1.17;72.09;97880.51;1691973;84;25800;-80
2021/11/12 02:00:20;;;;;;;114.45;51.65;;;;;;;1.17;72.14;97884.50;1691783;84;27399;-80
2021/11/12 02:02:47;;;;;;;108.87;52.80;;;;;;;1.18;72.24;97883.03;1691473;84;26200;-80
2021/11/12 02:05:14;;;;;;;125.90;53.95;;;;;;;1.20;72.33;97882.89;1691743;84;25770;-81
2021/11/12 02:07:41;;;;;;;115.92;51.95;;;;;;;1.20;72.37;97882.89;1691783;84;25858;-81
2021/11/12 02:10:18;;;;;;;119.25;52.45;;;;;;;1.22;72.43;97882.23;1691802;84;25318;-81
2021/11/12 02:13:32;;;;;;;109.27;48.83;;;;;;;1.22;72.58;97875.09;1691797;84;27813;-81
2021/11/12 02:15:14;;;;;;;121.22;53.85;;;;;;;1.25;72.58;97875.31;1658412;84;26013;-81
2021/11/12 02:17:45;;;;;;;118.50;49.67;;;;;;;1.26;72.67;97869.86;1691706;84;25836;-81
2021/11/12 02:20:24;;;;;;;120.70;50.80;;;;;;;1.27;72.73;97870.70;1693376;83;25875;-81
2021/11/12 02:22:52;;;;;;;121.35;51.42;;;;;;;1.27;72.76;97869.37;1719474;83;25779;-81
2021/11/12 02:25:25;;;;;;;104.10;46.80;;;;;;;1.28;72.84;97871.05;1719010;83;27431;-82
2021/11/12 02:30:23;;;;;;;120.00;47.95;;;;;;;1.30;73.01;97870.42;1720169;83;25782;-81
2021/11/12 02:32:44;;;;;;;114.85;47.17;;;;;;;1.30;73.10;97877.07;1714689;83;26333;-81
2021/11/12 02:35:10;;;;;;;109.70;48.38;;;;;;;1.32;73.17;97879.10;1719925;83;25739;-81
2021/11/12 02:37:37;;;;;;;114.88;47.20;;;;;;;1.33;73.21;97882.08;1719971;83;27393;-81
2021/11/12 02:40:04;;;;;;;124.82;46.80;;;;;;;1.36;73.34;97880.47;1718003;83;25724;-81
2021/11/12 02:42:31;;;;;;;119.93;49.25;;;;;;;1.37;73.38;97872.84;1714994;83;25275;-81
2021/11/12 02:44:57;;;;;;;106.72;47.98;;;;;;;1.38;73.44;97878.52;1714917;83;25807;-82
2021/11/12 02:47:24;;;;;;;122.78;48.95;;;;;;;1.36;73.54;97872.50;1714788;83;25763;-81
2021/11/12 02:49:53;;;;;;;119.70;50.55;;;;;;;1.35;73.67;97870.81;1714980;83;28041;-80
2021/11/12 02:52:19;;;;;;;116.70;49.35;;;;;;;1.37;73.78;97867.52;1714688;83;25758;-81
2021/11/12 02:54:47;;;;;;;127.82;52.78;;;;;;;1.39;73.83;97865.56;1714879;83;25901;-81
2021/11/12 02:57:14;;;;;;;125.58;50.25;;;;;;;1.40;73.87;97860.59;1715061;83;25686;-81
2021/11/12 02:59:41;;;;;;;122.17;51.77;;;;;;;1.43;73.93;97865.64;1714788;83;25803;-81
2021/11/12 03:02:08;;;;;;;111.57;50.12;;;;;;;1.45;73.97;97864.98;1714875;83;27381;-80
2021/11/12 03:04:35;;;;;;;116.22;50.58;;;;;;;1.45;73.97;97863.65;1714760;83;25822;-81
2021/11/12 03:07:03;;;;;;;95.95;44.25;;;;;;;1.47;74.08;97872.33;1714956;83;25876;-80
2021/11/12 03:09:32;;;;;;;85.87;41.83;;;;;;;1.47;74.15;97865.68;1715009;83;25745;-81
2021/11/12 03:12:00;;;;;;;85.42;38.40;;;;;;;1.48;74.20;97874.02;1694968;83;26469;-81
2021/11/12 03:14:27;;;;;;;85.92;41.10;;;;;;;1.51;74.26;97876.39;1714829;83;27385;-81
2021/11/12 03:16:55;;;;;;;85.85;42.70;;;;;;;1.53;74.29;97871.77;1714820;83;25529;-81
2021/11/12 03:19:25;;;;;;;93.15;44.33;;;;;;;1.55;74.30;97872.47;1715003;83;25318;-81
2021/11/12 03:22:01;;;;;;;94.37;43.08;;;;;;;1.56;74.32;97870.16;1714808;83;25737;-81
2021/11/12 03:24:26;;;;;;;98.35;43.13;;;;;;;1.57;74.31;97878.47;1713088;83;25747;-81
2021/11/12 04:02:32;;;;;;;115.92;47.65;;;;;;;1.59;75.05;97863.20;1714645;83;25823;-82
2021/11/12 05:10:48;;;;;;;87.20;44.42;;;;;;;2.05;75.03;97876.17;1693920;84;26481;-83
2021/11/12 05:13:28;;;;;;;78.65;40.83;;;;;;;2.09;75.06;97882.86;1692946;84;25692;-82
2021/11/12 05:33:35;;;;;;;81.90;39.55;;;;;;;2.17;75.14;97886.98;1694332;84;25270;-84
2021/11/12 05:56:04;;;;;;;91.65;47.23;;;;;;;2.37;75.14;97901.88;1694349;84;27441;-85
2021/11/12 05:58:31;;;;;;;90.83;49.67;;;;;;;2.38;75.18;97900.05;1694130;84;25921;-84
2021/11/12 06:00:58;;;;;;;95.47;46.68;;;;;;;2.36;75.20;97906.85;1694457;84;25822;-84
2021/11/12 06:03:25;;;;;;;95.67;48.87;;;;;;;2.36;75.26;97905.52;1694340;84;25810;-83
2021/11/12 06:05:51;;;;;;;86.95;45.10;;;;;;;2.38;75.26;97905.37;1694513;84;25741;-84
2021/11/12 06:08:18;;;;;;;88.40;44.13;;;;;;;2.39;75.25;97907.89;1694405;84;27486;-84
2021/11/12 06:10:44;;;;;;;85.20;45.65;;;;;;;2.41;75.19;97913.08;1694440;84;25689;-84
2021/11/12 06:13:11;;;;;;;88.12;45.95;;;;;;;2.43;75.22;97902.59;1694379;84;25697;-84
2021/11/12 06:15:39;;;;;;;82.20;44.20;;;;;;;2.46;75.23;97914.30;1691725;83;26323;-84
2021/11/12 06:18:06;;;;;;;80.67;43.70;;;;;;;2.47;75.20;97913.31;1694376;84;25710;-84
2021/11/12 06:20:34;;;;;;;87.80;42.95;;;;;;;2.51;75.20;97913.86;1694342;84;27418;-85
2021/11/12 06:23:00;;;;;;;79.10;41.95;;;;;;;2.54;75.21;97914.38;1694364;83;25831;-84
2021/11/12 06:25:27;;;;;;;80.45;41.60;;;;;;;2.56;75.17;97912.91;1694391;83;26440;-85
2021/11/12 06:27:54;;;;;;;79.20;39.40;;;;;;;2.57;75.13;97915.08;1694350;83;26465;-84
2021/11/12 06:30:21;;;;;;;73.45;37.48;;;;;;;2.59;75.18;97907.78;1694468;83;25819;-84
2021/11/12 06:32:47;;;;;;;73.02;39.33;;;;;;;2.65;75.18;97908.04;1694124;83;27436;-84
2021/11/12 06:35:14;;;;;;;77.45;39.50;;;;;;;2.71;75.11;97911.91;1694348;84;25865;-83
2021/11/12 06:37:40;;;;;;;81.08;42.67;;;;;;;2.75;75.06;97916.80;1694364;84;26439;-84
2021/11/12 06:40:16;;;;;;;83.27;41.98;;;;;;;2.79;75.01;97911.99;1694344;83;25811;-84
2021/11/12 06:42:48;;;;;;;83.90;45.08;;;;;;;2.82;75.02;97914.36;1695407;82;25803;-84
2021/11/12 06:50:38;;;;;;;88.70;44.13;;;;;;;2.88;75.02;97905.78;1694161;83;25763;-84
2021/11/12 06:53:06;;;;;;;87.70;46.75;;;;;;;2.87;75.04;97902.77;1694276;83;26489;-84
2021/11/12 06:55:32;;;;;;;112.50;59.08;;;;;;;2.88;75.08;97908.45;1694369;84;25769;-84
2021/11/12 06:57:59;;;;;;;104.07;52.30;;;;;;;2.90;75.16;97909.11;1694274;84;27371;-84
2021/11/12 07:00:26;;;;;;;100.45;53.63;;;;;;;2.94;75.19;97907.83;1694308;84;25875;-84
2021/11/12 07:02:54;;;;;;;95.62;50.38;;;;;;;2.97;75.18;97904.86;1694528;84;25966;-84
2021/11/12 07:05:20;;;;;;;115.42;60.17;;;;;;;2.98;75.16;97903.88;1694383;84;25775;-84
2021/11/12 07:07:48;;;;;;;131.20;68.83;;;;;;;3.01;75.16;97902.25;1693456;84;25945;-84
2021/11/12 07:10:16;;;;;;;102.25;54.27;;;;;;;3.05;75.19;97903.59;1693833;84;28304;-84
2021/11/12 07:12:42;;;;;;;98.40;47.75;;;;;;;3.08;75.23;97897.97;1693747;83;25722;-84
2021/11/12 07:15:10;;;;;;;84.75;43.52;;;;;;;3.13;75.27;97901.52;1694230;84;25821;-84
2021/11/12 07:17:38;;;;;;;72.78;41.50;;;;;;;3.15;75.22;97904.84;1693647;84;25930;-84
2021/11/12 07:20:06;;;;;;;82.25;41.55;;;;;;;3.17;75.15;97894.38;1693831;83;25828;-85
2021/11/12 07:22:36;;;;;;;86.40;42.78;;;;;;;3.20;75.13;97906.08;1666121;84;28039;-86
2021/11/12 07:25:06;;;;;;;85.47;41.83;;;;;;;3.22;75.07;97901.44;1694317;83;25724;-86
2021/11/12 07:27:33;;;;;;;81.80;44.27;;;;;;;3.26;75.07;97897.45;1693804;84;25814;-86
2021/11/12 07:30:00;;;;;;;77.40;39.75;;;;;;;3.30;75.09;97902.48;1692984;83;26327;-86
2021/11/12 07:32:27;;;;;;;82.75;42.30;;;;;;;3.24;75.03;97894.12;1694121;83;25784;-86
2021/11/12 07:34:56;;;;;;;85.72;44.83;;;;;;;3.25;75.07;97896.30;1694271;84;27460;-84
2021/11/12 07:37:26;;;;;;;85.42;42.15;;;;;;;3.26;75.06;97889.94;1694255;83;26057;-84
2021/11/12 07:39:51;;;;;;;82.12;43.33;;;;;;;3.31;75.11;97888.16;1694036;84;25933;-84
2021/11/12 07:42:29;;;;;;;85.75;44.40;;;;;;;3.35;75.05;97889.53;1707918;83;25952;-83
2021/11/12 07:47:22;;;;;;;88.80;45.40;;;;;;;3.43;75.03;97898.44;1720004;83;27496;-83
2021/11/12 07:49:59;;;;;;;91.87;48.60;;;;;;;3.46;75.07;97899.97;1719783;83;25774;-84
2021/11/12 07:52:32;;;;;;;95.77;47.50;;;;;;;3.50;75.06;97902.67;1719938;83;25318;-84
2021/11/12 07:55:00;;;;;;;99.03;47.40;;;;;;;3.54;75.02;97902.69;1720042;83;26693;-84
2021/11/12 07:57:27;;;;;;;89.13;46.33;;;;;;;3.57;75.07;97892.55;1720044;82;25805;-84
2021/11/12 07:59:54;;;;;;;82.00;45.08;;;;;;;3.63;75.09;97896.41;1719878;83;27378;-84
2021/11/12 08:02:22;;;;;;;99.28;45.83;;;;;;;3.63;75.04;97891.06;1719837;83;25820;-84
2021/11/12 08:04:51;;;;;;;97.95;48.08;;;;;;;3.63;75.07;97897.74;1719931;83;25753;-84
2021/11/12 08:07:18;;;;;;;90.55;46.28;;;;;;;3.67;75.10;97891.11;1719907;83;26343;-84
2021/11/12 08:12:16;;;;;;;87.17;45.08;;;;;;;3.78;75.02;97886.84;1719900;83;27395;-84
2021/11/12 08:22:43;;;;;;;87.22;45.48;;;;;;;3.96;74.83;97874.28;1705197;83;25543;-84
2021/11/12 08:33:09;;;;;;;102.65;48.13;;;;;;;4.19;74.79;97873.72;1719702;83;25775;-85
2021/11/12 08:40:52;;;;;;;97.55;48.80;;;;;;;4.27;75.06;97871.91;1720035;83;26019;-85
2021/11/12 08:43:19;;;;;;;96.80;49.67;;;;;;;4.33;74.99;97869.95;1698544;83;25720;-85
2021/11/12 08:48:39;;;;;;;76.35;39.50;;;;;;;4.48;74.93;97862.62;1694538;83;25752;-85
2021/11/12 08:50:53;;;;;;;54.63;29.32;;;;;;;4.57;74.92;97862.52;1691465;83;27387;-85
2021/11/12 08:53:20;;;;;;;48.20;26.60;;;;;;;4.62;74.87;97868.69;1694354;83;25803;-85
2021/11/12 08:55:48;;;;;;;51.70;27.00;;;;;;;4.62;74.68;97865.52;1694356;83;25727;-85
2021/11/12 08:58:15;;;;;;;53.40;29.80;;;;;;;4.67;74.67;97861.88;1690643;84;26315;-85
2021/11/12 09:00:43;;;;;;;46.83;25.88;;;;;;;4.75;74.64;97858.37;1693895;83;25724;-85
2021/11/12 09:03:11;;;;;;;46.68;27.95;;;;;;;4.80;74.55;97859.23;1694586;83;28396;-85
2021/11/12 09:05:38;;;;;;;52.93;28.27;;;;;;;4.86;74.47;97863.91;1694390;84;25808;-85
2021/11/12 09:08:05;;;;;;;54.90;30.20;;;;;;;4.91;74.47;97858.91;1694235;84;25911;-85
2021/11/12 09:10:32;;;;;;;54.15;31.48;;;;;;;4.94;74.39;97859.93;1694458;83;26406;-85
2021/11/12 09:13:17;;;;;;;56.90;32.15;;;;;;;4.95;74.32;97857.06;1694596;84;25903;-85
2021/11/12 09:15:36;;;;;;;56.23;29.75;;;;;;;5.00;74.25;97853.41;1692861;84;28169;-85
2021/11/12 09:18:04;;;;;;;56.18;28.83;;;;;;;5.07;74.23;97850.92;1693229;83;25821;-85
2021/11/12 09:20:31;;;;;;;48.23;27.27;;;;;;;5.08;74.17;97845.88;1674294;84;25814;-85
2021/11/12 09:23:00;;;;;;;52.35;28.50;;;;;;;5.09;74.06;97848.88;1694585;83;25962;-85
2021/11/12 09:25:27;;;;;;;48.73;29.05;;;;;;;5.11;74.01;97842.88;1693416;84;25850;-85
2021/11/12 09:27:54;;;;;;;52.30;29.57;;;;;;;5.17;74.05;97842.22;1693741;84;27442;-85
2021/11/12 09:30:25;;;;;;;53.08;27.90;;;;;;;5.22;73.98;97841.20;1689327;83;25790;-85
2021/11/12 09:32:54;;;;;;;53.40;30.55;;;;;;;5.26;73.85;97843.05;1687921;83;25305;-85
2021/11/12 09:35:21;;;;;;;53.60;28.83;;;;;;;5.30;73.76;97843.90;1693617;84;25847;-84
2021/11/12 09:37:48;;;;;;;57.88;31.33;;;;;;;5.34;73.65;97838.52;1694447;83;25792;-84
2021/11/12 09:40:16;;;;;;;61.45;32.83;;;;;;;5.34;73.54;97841.70;1694568;84;27463;-83
2021/11/12 09:42:44;;;;;;;56.63;30.10;;;;;;;5.38;73.61;97837.69;1704772;83;25800;-85
2021/11/12 09:45:12;;;;;;;54.30;31.65;;;;;;;5.43;73.62;97834.02;1720223;82;25295;-85
2021/11/12 09:47:40;;;;;;;53.83;30.35;;;;;;;5.43;73.50;97834.83;1720010;82;26442;-83
2021/11/12 09:50:16;;;;;;;54.25;29.98;;;;;;;5.43;73.42;97832.69;1720177;82;25812;-85
2021/11/12 09:52:43;;;;;;;58.10;32.30;;;;;;;5.46;73.35;97828.80;1719621;83;28230;-84
2021/11/12 09:55:12;;;;;;;57.78;31.90;;;;;;;5.47;73.35;97816.59;1712284;83;26510;-84
2021/11/12 09:57:43;;;;;;;64.12;32.38;;;;;;;5.53;73.26;97817.77;1720128;83;25712;-84
2021/11/12 10:00:15;;;;;;;60.73;32.73;;;;;;;5.54;73.17;97811.41;1720235;83;26485;-84
2021/11/12 10:02:45;;;;;;;55.58;31.65;;;;;;;5.56;73.15;97809.38;1720159;82;25722;-84
2021/11/12 10:05:15;;;;;;;58.40;32.17;;;;;;;5.59;73.02;97813.06;1720024;83;27450;-84
2021/11/12 10:07:42;;;;;;;62.53;32.83;;;;;;;5.62;73.01;97806.87;1720082;83;25859;-84
2021/11/12 10:10:15;;;;;;;58.13;32.88;;;;;;;5.62;73.00;97807.38;1720087;83;25799;-84
2021/11/12 10:12:47;;;;;;;61.85;34.20;;;;;;;5.65;72.98;97805.70;1720070;83;25767;-84
2021/11/12 10:15:22;;;;;;;60.28;34.78;;;;;;;5.68;72.93;97801.31;1719812;83;25810;-84
2021/11/12 10:17:50;;;;;;;62.48;35.15;;;;;;;5.66;72.82;97804.70;1720079;83;27408;-84
2021/11/12 10:20:22;;;;;;;64.75;36.23;;;;;;;5.66;72.77;97795.32;1720143;82;25758;-84
2021/11/12 10:22:51;;;;;;;60.03;34.50;;;;;;;5.67;72.84;97798.33;1720044;82;25767;-85
2021/11/12 10:25:20;;;;;;;55.80;33.02;;;;;;;5.72;72.91;97789.27;1720091;83;25740;-85
2021/11/12 10:27:50;;;;;;;61.13;34.27;;;;;;;5.76;72.88;97790.60;1720177;83;25286;-84
2021/11/12 10:30:22;;;;;;;60.83;33.55;;;;;;;5.82;72.79;97789.90;1719666;83;28265;-85
2021/11/12 10:32:55;;;;;;;61.92;33.65;;;;;;;5.87;72.71;97788.05;1719794;83;25731;-84
2021/11/12 10:35:31;;;;;;;64.40;34.13;;;;;;;5.90;72.65;97781.89;1720042;83;25343;-84
2021/11/12 10:38:09;;;;;;;61.20;32.40;;;;;;;5.92;72.54;97771.81;1720019;83;25888;-84
2021/11/12 10:40:36;;;;;;;65.75;34.48;;;;;;;5.92;72.49;97774.98;1720064;83;25821;-84
2021/11/12 10:43:03;;;;;;;63.95;35.95;;;;;;;5.90;72.52;97768.49;1709821;83;28270;-85
2021/11/12 10:45:34;;;;;;;63.55;37.98;;;;;;;5.91;72.46;97767.99;1694327;83;25819;-85
2021/11/12 10:48:10;;;;;;;74.25;36.90;;;;;;;5.93;72.51;97764.11;1694418;83;26486;-85
2021/11/12 10:50:38;;;;;;;60.20;34.27;;;;;;;5.97;72.52;97761.42;1693052;84;25858;-84
2021/11/12 10:53:16;;;;;;;57.85;33.33;;;;;;;6.06;72.41;97755.00;1694360;84;25741;-85
2021/11/12 10:55:46;;;;;;;57.30;33.55;;;;;;;6.08;72.26;97752.99;1694402;84;28373;-85
2021/11/12 10:58:14;;;;;;;59.23;32.67;;;;;;;6.10;72.18;97745.62;1694524;84;25729;-84
2021/11/12 11:00:50;;;;;;;57.83;33.60;;;;;;;6.14;72.11;97742.92;1694385;83;25772;-85
2021/11/12 11:03:20;;;;;;;58.20;32.58;;;;;;;6.18;72.03;97741.21;1694371;83;26400;-85
2021/11/12 11:05:58;;;;;;;66.80;37.40;;;;;;;6.17;71.94;97736.36;1693663;84;26366;-85
2021/11/12 11:08:32;;;;;;;74.72;43.05;;;;;;;6.19;71.93;97734.34;1694411;84;27454;-85
2021/11/12 11:11:04;;;;;;;60.75;34.55;;;;;;;6.09;71.93;97730.55;1694411;84;25932;-86
2021/11/12 11:13:38;;;;;;;56.00;33.98;;;;;;;6.02;72.12;97728.75;1693424;82;25767;-85
2021/11/12 11:16:18;;;;;;;55.55;33.05;;;;;;;6.00;72.29;97718.20;1693500;82;25914;-86
2021/11/12 11:18:43;;;;;;;56.88;33.88;;;;;;;6.02;72.36;97716.19;1692998;82;25542;-85
2021/11/12 11:24:04;;;;;;;58.35;33.10;;;;;;;6.12;72.30;97711.44;1690306;84;25796;-85
2021/11/12 11:26:48;;;;;;;59.50;33.08;;;;;;;6.16;72.25;97715.12;1689781;83;26287;-86
2021/11/12 11:29:20;;;;;;;60.85;34.53;;;;;;;6.18;72.25;97711.23;1688639;83;25829;-85
2021/11/12 11:31:47;;;;;;;65.00;36.87;;;;;;;6.24;72.30;97709.20;1686393;84;25688;-85
2021/11/12 11:34:14;;;;;;;59.80;34.63;;;;;;;6.29;72.31;97705.97;1687964;84;27436;-85
2021/11/12 11:36:45;;;;;;;60.80;34.58;;;;;;;6.29;72.00;97699.26;1693711;83;44060;-85
2021/11/12 11:39:16;;;;;;;79.72;44.10;;;;;;;6.28;72.07;97704.33;1694331;83;25800;-86
2021/11/12 11:41:48;;;;;;;68.10;38.02;;;;;;;6.26;72.16;97700.47;1694230;83;25868;-86
2021/11/12 11:44:19;;;;;;;60.90;35.47;;;;;;;6.32;72.25;97702.94;1713681;83;26416;-85
2021/11/12 11:46:49;;;;;;;58.35;34.63;;;;;;;6.39;72.11;97701.23;1719989;81;27410;-85
2021/11/12 11:49:18;;;;;;;65.32;38.25;;;;;;;6.44;71.93;97698.33;1719949;82;25868;-85
2021/11/12 11:51:58;;;;;;;63.58;35.23;;;;;;;6.49;71.83;97696.47;1720029;82;25712;-85
2021/11/12 11:54:44;;;;;;;62.73;35.65;;;;;;;6.49;71.71;97698.64;1719989;82;26604;-85
2021/11/12 11:57:17;;;;;;;63.98;37.63;;;;;;;6.47;71.77;97691.28;1720001;83;25919;-85
2021/11/12 11:59:45;;;;;;;60.80;35.92;;;;;;;6.52;71.81;97690.72;1720082;83;27615;-85
2021/11/12 12:02:21;;;;;;;64.62;36.95;;;;;;;6.59;71.74;97694.38;1719956;83;25768;-85
2021/11/12 12:04:52;;;;;;;65.15;38.55;;;;;;;6.56;71.73;97692.04;1719920;83;25289;-86
2021/11/12 12:07:23;;;;;;;70.15;39.13;;;;;;;6.61;71.73;97691.52;1719701;83;25885;-86
2021/11/12 12:10:01;;;;;;;76.55;38.58;;;;;;;6.66;71.68;97682.41;1719938;83;25727;-86
2021/11/12 12:12:36;;;;;;;67.27;37.78;;;;;;;6.68;71.61;97676.36;1720070;83;27373;-86
2021/11/12 12:15:12;;;;;;;66.65;38.38;;;;;;;6.70;71.62;97675.67;1720082;83;25702;-85
2021/11/12 12:17:43;;;;;;;65.50;36.63;;;;;;;6.68;71.67;97667.80;1717127;83;25771;-86
2021/11/12 12:20:22;;;;;;;66.75;37.53;;;;;;;6.63;71.51;97666.19;1720111;83;26355;-86
2021/11/12 12:35:00;;;;;;;73.67;42.38;;;;;;;6.67;71.51;97667.47;1720052;83;26383;-86
2021/11/12 13:23:15;;;;;;;70.32;40.40;;;;;;;6.91;71.30;97641.44;1684907;83;28084;-85
2021/11/12 13:25:49;;;;;;;;;;;;;;;6.93;71.25;97643.44;1678347;84;25763;-86
2021/11/12 13:28:41;;;;;;;66.33;37.30;;;;;;;6.90;71.21;97638.42;1694272;84;26301;-86
2021/11/12 13:31:19;;;;;;;74.27;42.45;;;;;;;6.84;71.31;97630.61;1694562;84;25887;-86
2021/11/12 13:33:51;;;;;;;76.77;42.05;;;;;;;6.88;71.32;97622.00;1694210;84;25688;-85
2021/11/12 13:36:32;;;;;;;73.78;41.77;;;;;;;6.92;71.22;97629.69;1694298;84;28329;-85
2021/11/12 13:39:19;;;;;;;77.00;42.78;;;;;;;6.79;71.08;97628.47;1693842;83;25847;-86
2021/11/12 13:41:50;;;;;;;75.95;43.68;;;;;;;6.75;71.22;97624.50;1691190;84;25753;-86
2021/11/12 13:44:21;;;;;;;71.97;43.23;;;;;;;6.77;71.29;97630.49;1694144;84;25758;-86
2021/11/12 13:46:58;;;;;;;71.92;42.75;;;;;;;6.82;71.27;97630.80;1694480;84;25280;-86
2021/11/12 13:49:42;;;;;;;74.17;42.67;;;;;;;6.83;71.27;97636.48;1694359;83;27481;-86
2021/11/12 13:52:20;;;;;;;81.67;44.05;;;;;;;6.77;71.37;97633.17;1694286;84;26021;-86
2021/11/12 13:54:54;;;;;;;84.20;45.15;;;;;;;6.79;71.38;97628.97;1694284;84;25279;-86
2021/11/12 13:57:27;;;;;;;83.12;44.60;;;;;;;6.83;71.30;97634.31;1694444;83;26622;-86
2021/11/12 14:00:08;;;;;;;;;;;;;;;6.83;71.27;97629.78;1696977;83;25720;-86
2021/11/12 14:03:08;;;;;;;75.25;42.53;;;;;;;6.86;71.26;97625.39;1663007;84;27646;-86
2021/11/12 14:05:38;;;;;;;71.05;41.73;;;;;;;6.85;71.17;97623.73;1693582;84;25737;-86
2021/11/12 14:08:12;;;;;;;72.50;43.20;;;;;;;6.85;71.17;97631.78;1694162;83;25720;-86
2021/11/12 14:10:48;;;;;;;75.03;43.45;;;;;;;6.86;71.07;97634.79;1694427;83;25771;-86
2021/11/12 14:13:21;;;;;;;81.15;44.00;;;;;;;6.86;71.05;97634.79;1673452;84;25861;-87
2021/11/12 14:16:23;;;;;;;90.57;47.45;;;;;;;6.88;71.03;97636.45;1694373;83;27555;-86
2021/11/12 14:21:57;;;;;;;90.42;49.38;;;;;;;6.88;71.04;97637.30;1694322;83;25661;-86
2021/11/12 14:24:56;;;;;;;81.42;46.85;;;;;;;6.88;71.05;97639.44;1694258;83;25760;-86
2021/11/12 14:27:35;;;;;;;87.25;48.25;;;;;;;6.88;71.02;97632.73;1692320;84;26299;-87
2021/11/12 14:33:25;;;;;;;92.08;48.58;;;;;;;6.80;71.13;97622.09;1684974;83;25831;-85
2021/11/12 14:35:30;;;;;;;92.12;47.70;;;;;;;6.79;71.17;97620.42;1668180;84;25904;-85
2021/11/12 14:54:52;;;;;;;99.50;51.20;;;;;;;6.69;71.31;97610.45;1694379;83;26256;-86
2021/11/12 14:59:56;;;;;;;97.35;52.48;;;;;;;6.68;71.42;97605.27;1693990;84;25767;-85
2021/11/12 15:02:22;;;;;;;91.87;51.35;;;;;;;6.65;71.45;97597.07;1694534;84;25657;-86
2021/11/12 15:04:48;;;;;;;87.60;48.33;;;;;;;6.63;71.43;97600.98;1694481;84;25767;-85
2021/11/12 15:07:21;;;;;;;98.03;54.53;;;;;;;6.61;71.48;97594.45;1694339;84;25804;-86
2021/11/12 15:09:44;;;;;;;127.10;70.25;;;;;;;6.56;71.47;97598.17;1693511;83;28264;-85
2021/11/12 15:12:10;;;;;;;132.93;71.67;;;;;;;6.52;71.53;97592.83;1692810;84;25707;-86
2021/11/12 15:14:43;;;;;;;124.85;69.97;;;;;;;6.52;71.60;97590.15;1694233;84;25777;-86
2021/11/12 15:17:07;;;;;;;226.92;122.25;;;;;;;6.50;71.57;97590.36;1693879;84;25748;-86
2021/11/12 15:19:37;;;;;;;412.00;212.48;;;;;;;6.47;71.63;97588.53;1694437;84;25855;-86
2021/11/12 15:25:02;;;;;;;181.00;76.92;;;;;;;6.44;71.77;97596.94;1694024;83;26143;-86
2021/11/12 15:29:37;;;;;;;104.20;58.73;;;;;;;6.36;71.86;97588.46;1693593;84;25812;-86
2021/11/12 15:32:08;;;;;;;100.10;54.80;;;;;;;6.33;71.89;97594.69;1692574;84;25743;-85
2021/11/12 15:34:38;;;;;;;128.70;58.83;;;;;;;6.32;72.01;97595.70;1694108;84;28318;-86
2021/11/12 15:39:52;;;;;;;101.58;54.88;;;;;;;6.26;72.16;97594.58;1694325;84;25763;-85
2021/11/12 15:44:41;;;;;;;103.53;57.53;;;;;;;6.28;72.25;97603.25;1694205;83;25661;-85
2021/11/12 15:47:20;;;;;;;109.30;58.68;;;;;;;6.22;72.25;97601.31;1694182;83;27412;-85
2021/11/12 15:49:39;;;;;;;131.25;71.80;;;;;;;6.17;72.34;97602.84;1692726;83;25414;-85
2021/11/12 15:52:11;;;;;;;117.55;68.07;;;;;;;6.18;72.48;97601.33;1694258;83;26478;-86
2021/11/12 15:54:50;;;;;;;103.07;56.88;;;;;;;6.20;72.54;97603.83;1694438;83;34758;-85
2021/11/12 15:57:32;;;;;;;97.67;51.42;;;;;;;6.20;72.52;97599.31;1692609;83;25759;-85
2021/11/12 15:59:57;;;;;;;98.55;53.10;;;;;;;6.19;72.55;97594.12;1692199;83;27470;-85
2021/11/12 16:13:04;;;;;;;110.90;56.88;;;;;;;6.18;72.72;97597.81;1694322;83;27579;-86
2021/11/12 16:18:13;;;;;;;130.90;65.47;;;;;;;6.18;72.71;97596.47;1694257;84;25820;-85
2021/11/12 16:25:47;;;;;;;119.42;62.27;;;;;;;6.20;72.76;97597.97;1694302;84;28165;-85
2021/11/12 16:28:20;;;;;;;129.60;65.78;;;;;;;6.18;72.77;97594.63;1694370;83;25783;-84
2021/11/12 16:30:47;;;;;;;121.35;62.55;;;;;;;6.16;72.78;97595.84;1693616;84;25831;-85
2021/11/12 16:33:10;;;;;;;128.57;65.25;;;;;;;6.17;72.77;97595.63;1693881;83;26543;-85
2021/11/12 16:35:37;;;;;;;161.35;75.08;;;;;;;6.13;72.84;97592.50;1694486;84;25681;-85
2021/11/12 16:38:14;;;;;;;144.53;70.32;;;;;;;6.12;72.85;97598.88;1694104;84;27440;-85
2021/11/12 16:40:38;;;;;;;119.55;60.78;;;;;;;6.11;72.92;97597.70;1691979;84;25699;-85
2021/11/12 16:43:31;;;;;;;115.00;57.55;;;;;;;6.11;72.93;97591.84;1694267;83;25759;-85
2021/11/12 16:50:58;;;;;;;105.58;61.28;;;;;;;6.09;72.99;97593.86;1720095;83;28136;-84
2021/11/12 16:53:40;;;;;;;109.92;58.38;;;;;;;6.08;72.96;97589.52;1718574;83;25680;-85
2021/11/12 16:59:05;;;;;;;284.67;133.20;;;;;;;6.06;73.00;97596.89;1671347;85;25812;-85